createdAt,value
2018-12-02T00:00:57.718Z,70.80
2018-12-02T00:03:27.530Z,70.90
2018-12-02T00:05:56.160Z,70.90
2018-12-02T00:08:24.695Z,71.00
2018-12-02T00:10:59.045Z,70.90
2018-12-02T00:13:33.442Z,70.80
2018-12-02T00:16:01.926Z,70.90
2018-12-02T00:18:33.489Z,70.80
2018-12-02T00:21:01.968Z,70.90
2018-12-02T00:23:30.429Z,70.90
2018-12-02T00:26:10.740Z,70.90
2018-12-02T00:28:39.517Z,70.90
2018-12-02T00:31:09.496Z,71.00
2018-12-02T00:33:38.108Z,71.00
2018-12-02T00:36:09.713Z,71.10
2018-12-02T00:38:50.347Z,71.00
2018-12-02T00:41:18.929Z,71.00
2018-12-02T00:43:57.094Z,71.00
2018-12-02T00:46:38.348Z,71.10
2018-12-02T00:49:06.877Z,71.10
2018-12-02T00:51:39.477Z,71.20
2018-12-02T00:54:07.933Z,71.20
2018-12-02T00:56:36.494Z,71.20
2018-12-02T00:59:11.203Z,71.20
2018-12-02T01:01:39.729Z,71.20
2018-12-02T01:04:09.491Z,71.30
2018-12-02T01:06:45.356Z,71.30
2018-12-02T01:12:20.181Z,71.30
2018-12-02T01:17:56.373Z,71.30
2018-12-02T01:20:44.366Z,71.30
2018-12-02T01:23:20.865Z,71.40
2018-12-02T01:26:02.395Z,71.40
2018-12-02T01:28:33.566Z,71.40
2018-12-02T01:31:08.993Z,71.50
2018-12-02T01:33:37.616Z,71.50
2018-12-02T01:36:06.333Z,71.50
2018-12-02T01:38:34.781Z,71.50
2018-12-02T01:41:03.402Z,71.50
2018-12-02T01:43:33.656Z,71.50
2018-12-02T01:46:03.658Z,71.50
2018-12-02T01:48:33.464Z,71.50
2018-12-02T01:51:03.598Z,71.50
2018-12-02T01:53:39.020Z,71.60
2018-12-02T01:56:11.033Z,71.60
2018-12-02T02:01:07.757Z,71.60
2018-12-02T02:03:36.339Z,71.50
2018-12-02T02:06:04.772Z,71.50
2018-12-02T02:08:38.914Z,71.60
2018-12-02T02:11:07.553Z,71.60
2018-12-02T02:13:35.997Z,71.60
2018-12-02T02:16:15.006Z,71.70
2018-12-02T02:18:50.900Z,71.70
2018-12-02T02:21:27.018Z,71.70
2018-12-02T02:23:58.733Z,71.80
2018-12-02T02:26:27.612Z,71.70
2018-12-02T02:28:56.069Z,71.70
2018-12-02T02:31:27.952Z,71.70
2018-12-02T02:33:56.516Z,71.80
2018-12-02T02:36:27.661Z,71.80
2018-12-02T02:38:57.600Z,71.90
2018-12-02T02:41:27.714Z,71.90
2018-12-02T02:43:56.128Z,71.90
2018-12-02T02:46:24.671Z,71.90
2018-12-02T02:48:57.654Z,71.90
2018-12-02T02:51:26.137Z,72.00
2018-12-02T02:53:57.683Z,72.00
2018-12-02T02:56:27.655Z,72.00
2018-12-02T02:58:57.701Z,72.00
2018-12-02T03:01:27.623Z,72.00
2018-12-02T03:03:56.125Z,72.00
2018-12-02T03:06:27.685Z,72.00
2018-12-02T03:08:57.570Z,72.00
2018-12-02T03:11:26.234Z,72.00
2018-12-02T03:13:57.592Z,72.10
2018-12-02T03:16:26.021Z,72.20
2018-12-02T03:18:54.706Z,72.20
2018-12-02T03:21:23.254Z,72.20
2018-12-02T03:23:57.100Z,72.10
2018-12-02T03:26:27.617Z,72.10
2018-12-02T03:28:56.058Z,72.20
2018-12-02T03:31:24.542Z,72.20
2018-12-02T03:33:57.549Z,72.20
2018-12-02T03:36:25.965Z,72.20
2018-12-02T03:38:54.605Z,72.20
2018-12-02T03:41:23.038Z,72.30
2018-12-02T03:43:51.461Z,72.30
2018-12-02T03:46:21.589Z,72.30
2018-12-02T03:48:51.691Z,72.30
2018-12-02T03:51:20.225Z,72.40
2018-12-02T03:54:02.356Z,72.30
2018-12-02T03:56:30.892Z,72.50
2018-12-02T04:02:09.105Z,72.40
2018-12-02T04:04:50.345Z,72.40
2018-12-02T04:07:27.077Z,72.40
2018-12-02T04:09:58.624Z,72.40
2018-12-02T04:15:22.651Z,72.50
2018-12-02T04:18:02.939Z,72.50
2018-12-02T04:20:39.045Z,72.50
2018-12-02T04:23:20.289Z,72.50
2018-12-02T04:26:07.623Z,72.50
2018-12-02T04:28:36.192Z,72.60
2018-12-02T04:31:05.173Z,72.60
2018-12-02T04:33:50.370Z,72.60
2018-12-02T04:36:21.909Z,72.70
2018-12-02T04:42:07.514Z,72.60
2018-12-02T04:44:36.017Z,72.80
2018-12-02T04:47:04.609Z,72.70
2018-12-02T04:49:33.125Z,72.70
2018-12-02T04:55:13.546Z,72.80
2018-12-02T04:57:45.609Z,72.80
2018-12-02T05:03:20.424Z,72.80
2018-12-02T05:05:51.618Z,72.90
2018-12-02T05:08:43.557Z,72.90
2018-12-02T05:11:15.656Z,72.90
2018-12-02T05:19:30.041Z,72.90
2018-12-02T05:24:51.332Z,73.00
2018-12-02T05:27:38.426Z,73.00
2018-12-02T05:30:15.528Z,73.00
2018-12-02T05:32:56.465Z,73.00
2018-12-02T05:35:33.176Z,73.20
2018-12-02T05:40:58.958Z,73.20
2018-12-02T05:43:27.498Z,73.20
2018-12-02T05:46:14.478Z,73.20
2018-12-02T05:51:45.861Z,73.20
2018-12-02T05:54:21.001Z,73.10
2018-12-02T05:56:57.237Z,73.20
2018-12-02T05:59:25.772Z,73.20
2018-12-02T06:01:54.254Z,73.40
2018-12-02T06:07:21.132Z,73.40
2018-12-02T06:09:53.246Z,73.50
2018-12-02T06:12:40.091Z,73.50
2018-12-02T06:15:12.458Z,73.50
2018-12-02T06:20:34.305Z,73.50
2018-12-02T06:23:20.367Z,73.50
2018-12-02T06:28:42.001Z,73.50
2018-12-02T06:31:16.199Z,73.50
2018-12-02T06:36:50.617Z,73.60
2018-12-02T06:42:11.953Z,73.70
2018-12-02T06:44:56.379Z,73.70
2018-12-02T06:47:27.755Z,73.70
2018-12-02T06:49:56.376Z,73.70
2018-12-02T06:52:24.932Z,73.70
2018-12-02T06:55:03.216Z,73.70
2018-12-02T06:57:39.054Z,73.80
2018-12-02T07:00:21.041Z,73.80
2018-12-02T07:05:43.037Z,73.80
2018-12-02T07:11:04.527Z,73.80
2018-12-02T07:19:21.326Z,73.90
2018-12-02T07:21:52.414Z,73.90
2018-12-02T07:27:21.236Z,72.90
2018-12-02T07:35:35.038Z,71.20
2018-12-02T07:49:35.105Z,69.40
2018-12-02T07:52:09.190Z,69.50
2018-12-02T07:55:01.666Z,69.40
2018-12-02T08:03:16.817Z,69.30
2018-12-02T08:05:45.257Z,69.30
2018-12-02T08:11:07.006Z,69.00
2018-12-02T08:19:21.416Z,69.20
2018-12-02T08:24:51.117Z,69.10
2018-12-02T08:30:18.401Z,68.90
2018-12-02T08:35:40.149Z,69.00
2018-12-02T08:38:10.774Z,68.90
2018-12-02T08:43:44.673Z,69.00
2018-12-02T08:46:16.355Z,69.00
2018-12-02T08:48:44.801Z,68.40
2018-12-02T08:51:17.624Z,68.60
2018-12-02T08:53:45.801Z,68.70
2018-12-02T08:56:15.976Z,68.80
2018-12-02T08:58:45.833Z,68.50
2018-12-02T09:01:14.493Z,68.80
2018-12-02T09:03:43.001Z,69.10
2018-12-02T09:06:11.643Z,68.80
2018-12-02T09:08:40.166Z,68.50
2018-12-02T09:11:15.215Z,68.90
2018-12-02T09:13:46.736Z,68.90
2018-12-02T09:16:15.917Z,68.90
2018-12-02T09:18:45.775Z,69.00
2018-12-02T09:21:14.294Z,69.20
2018-12-02T09:24:01.669Z,69.30
2018-12-02T09:29:22.908Z,69.30
2018-12-02T09:31:51.407Z,69.40
2018-12-02T09:34:19.808Z,69.60
2018-12-02T09:36:58.039Z,69.60
2018-12-02T09:39:27.902Z,69.60
2018-12-02T09:42:03.337Z,70.00
2018-12-02T09:47:28.855Z,70.20
2018-12-02T09:49:57.350Z,70.10
2018-12-02T09:52:25.917Z,70.10
2018-12-02T09:57:57.606Z,69.50
2018-12-02T10:00:26.028Z,69.70
2018-12-02T10:03:13.621Z,69.90
2018-12-02T10:05:42.217Z,69.90
2018-12-02T10:08:10.734Z,70.20
2018-12-02T10:10:39.361Z,70.20
2018-12-02T10:13:16.247Z,70.00
2018-12-02T10:21:30.857Z,70.20
2018-12-02T10:26:51.997Z,69.90
2018-12-02T10:29:39.269Z,70.10
2018-12-02T10:32:15.348Z,70.20
2018-12-02T10:35:07.786Z,69.90
2018-12-02T10:37:40.009Z,70.30
2018-12-02T10:40:20.707Z,70.30
2018-12-02T10:45:56.681Z,70.60
2018-12-02T10:51:17.968Z,70.80
2018-12-02T10:53:46.478Z,70.80
2018-12-02T10:56:15.967Z,70.80
2018-12-02T10:58:44.432Z,70.80
2018-12-02T11:04:06.715Z,70.10
2018-12-02T11:06:36.327Z,70.40
2018-12-02T11:09:06.265Z,70.50
2018-12-02T11:11:40.014Z,70.10
2018-12-02T11:14:08.497Z,70.40
2018-12-02T11:16:40.067Z,70.40
2018-12-02T11:19:21.394Z,70.40
2018-12-02T11:21:50.113Z,70.30
2018-12-02T11:30:07.557Z,70.60
2018-12-02T11:32:50.586Z,70.40
2018-12-02T11:35:19.430Z,70.50
2018-12-02T11:37:52.087Z,70.80
2018-12-02T11:43:16.069Z,70.50
2018-12-02T11:57:17.793Z,71.00
2018-12-02T11:59:57.459Z,70.80
2018-12-02T12:02:26.041Z,70.80
2018-12-02T12:07:48.397Z,71.10
2018-12-02T12:10:27.858Z,71.10
2018-12-02T12:15:49.479Z,71.50
2018-12-02T12:18:22.082Z,71.00
2018-12-02T12:20:50.675Z,71.20
2018-12-02T12:23:22.236Z,71.20
2018-12-02T12:25:50.944Z,71.40
2018-12-02T12:28:37.805Z,71.50
2018-12-02T12:31:06.357Z,71.40
2018-12-02T12:33:34.899Z,71.60
2018-12-02T12:36:25.940Z,71.80
2018-12-02T12:38:54.548Z,72.00
2018-12-02T12:41:23.050Z,72.10
2018-12-02T12:46:45.028Z,72.20
2018-12-02T12:49:13.685Z,71.70
2018-12-02T12:54:55.741Z,72.20
2018-12-02T12:57:38.654Z,72.20
2018-12-02T13:00:12.580Z,72.00
2018-12-02T13:02:56.701Z,72.20
2018-12-02T13:08:18.716Z,72.10
2018-12-02T13:10:47.189Z,72.10
2018-12-02T13:13:16.056Z,72.40
2018-12-02T13:15:44.668Z,72.60
2018-12-02T13:18:13.242Z,72.30
2018-12-02T13:23:34.588Z,72.30
2018-12-02T13:26:03.064Z,72.50
2018-12-02T13:28:31.587Z,72.30
2018-12-02T13:33:53.349Z,72.50
2018-12-02T13:36:21.971Z,72.60
2018-12-02T13:38:50.475Z,72.30
2018-12-02T13:44:11.806Z,72.60
2018-12-02T13:47:01.836Z,72.70
2018-12-02T13:49:30.466Z,72.40
2018-12-02T13:52:09.357Z,72.60
2018-12-02T13:54:56.684Z,72.50
2018-12-02T13:57:25.141Z,72.20
2018-12-02T13:59:53.603Z,72.00
2018-12-02T14:02:22.150Z,72.40
2018-12-02T14:04:50.734Z,72.70
2018-12-02T14:07:19.202Z,72.20
2018-12-02T14:09:47.810Z,71.90
2018-12-02T14:12:22.014Z,72.40
2018-12-02T14:14:50.830Z,72.60
2018-12-02T14:17:21.715Z,72.40
2018-12-02T14:20:02.785Z,72.10
2018-12-02T14:22:31.318Z,72.40
2018-12-02T14:30:46.154Z,72.20
2018-12-02T14:33:27.182Z,72.50
2018-12-02T14:35:55.862Z,72.40
2018-12-02T14:38:24.470Z,71.80
2018-12-02T14:40:58.052Z,72.30
2018-12-02T14:46:38.710Z,72.30
2018-12-02T14:49:15.496Z,72.40
2018-12-02T14:51:43.935Z,72.60
2018-12-02T14:54:21.566Z,72.60
2018-12-02T14:56:57.377Z,72.40
2018-12-02T14:59:26.054Z,72.50
2018-12-02T15:01:58.003Z,72.80
2018-12-02T15:04:28.145Z,72.80
2018-12-02T15:07:03.559Z,72.60
2018-12-02T15:12:28.017Z,72.90
2018-12-02T15:15:08.726Z,72.70
2018-12-02T15:17:37.201Z,72.50
2018-12-02T15:20:14.120Z,72.60
2018-12-02T15:22:46.102Z,72.60
2018-12-02T15:25:14.927Z,72.70
2018-12-02T15:27:56.721Z,72.20
2018-12-02T15:30:25.203Z,72.40
2018-12-02T15:32:53.724Z,72.40
2018-12-02T15:35:28.208Z,72.40
2018-12-02T15:37:56.815Z,72.00
2018-12-02T15:40:44.887Z,72.40
2018-12-02T15:43:16.094Z,72.20
2018-12-02T15:45:46.222Z,72.00
2018-12-02T15:48:16.137Z,72.30
2018-12-02T15:50:50.415Z,72.40
2018-12-02T15:53:27.421Z,72.30
2018-12-02T15:56:19.942Z,71.50
2018-12-02T15:58:52.251Z,71.40
2018-12-02T16:01:27.473Z,71.80
2018-12-02T16:04:03.539Z,71.50
2018-12-02T16:06:34.078Z,71.40
2018-12-02T16:09:02.577Z,72.00
2018-12-02T16:11:39.635Z,72.40
2018-12-02T16:14:08.140Z,72.30
2018-12-02T16:16:40.135Z,72.20
2018-12-02T16:19:15.503Z,72.40
2018-12-02T16:24:50.956Z,72.20
2018-12-02T16:30:17.220Z,72.80
2018-12-02T16:32:50.322Z,73.30
2018-12-02T16:35:32.807Z,73.10
2018-12-02T16:38:10.126Z,73.10
2018-12-02T16:40:38.624Z,73.10
2018-12-02T16:43:08.030Z,72.80
2018-12-02T16:45:36.651Z,72.30
2018-12-02T16:48:11.321Z,72.00
2018-12-02T16:50:42.233Z,72.00
2018-12-02T16:56:08.784Z,71.80
2018-12-02T16:59:17.831Z,71.70
2018-12-02T17:01:48.465Z,71.70
2018-12-02T17:04:16.942Z,71.90
2018-12-02T17:06:45.433Z,71.70
2018-12-02T17:09:14.091Z,72.00
2018-12-02T17:11:43.251Z,72.10
2018-12-02T17:14:11.824Z,72.20
2018-12-02T17:16:46.290Z,72.40
2018-12-02T17:19:15.084Z,72.20
2018-12-02T17:21:56.865Z,72.40
2018-12-02T17:27:32.945Z,72.00
2018-12-02T17:30:01.527Z,72.40
2018-12-02T17:32:34.265Z,72.40
2018-12-02T17:35:02.977Z,72.40
2018-12-02T17:37:39.608Z,72.10
2018-12-02T17:40:17.696Z,72.40
2018-12-02T17:42:52.157Z,72.30
2018-12-02T17:45:22.281Z,72.10
2018-12-02T17:47:52.197Z,72.50
2018-12-02T17:50:22.325Z,72.50
2018-12-02T17:52:52.242Z,72.30
2018-12-02T17:55:20.921Z,72.20
2018-12-02T17:57:52.332Z,72.60
2018-12-02T18:00:23.701Z,72.40
2018-12-02T18:03:09.041Z,72.00
2018-12-02T18:05:39.915Z,71.90
2018-12-02T18:08:10.182Z,71.90
2018-12-02T18:13:32.106Z,71.80
2018-12-02T18:16:00.811Z,71.80
2018-12-02T18:18:34.160Z,72.40
2018-12-02T18:21:02.669Z,72.80
2018-12-02T18:23:34.268Z,72.80
2018-12-02T18:26:04.538Z,72.90
2018-12-02T18:28:34.258Z,73.40
2018-12-02T18:31:25.937Z,73.50
2018-12-02T18:34:03.540Z,74.20
2018-12-02T18:36:33.763Z,75.00
2018-12-02T18:39:07.141Z,75.60
2018-12-02T18:44:34.366Z,76.50
2018-12-02T18:47:03.041Z,77.00
2018-12-02T18:58:10.155Z,78.20
2018-12-02T19:00:46.609Z,78.40
2018-12-02T19:03:16.562Z,78.60
2018-12-02T19:05:45.324Z,78.80
2018-12-02T19:08:13.789Z,78.80
2018-12-02T19:10:49.944Z,79.10
2018-12-02T19:16:16.342Z,79.30
2018-12-02T19:18:51.648Z,79.40
2018-12-02T19:21:26.383Z,79.70
2018-12-02T19:23:59.161Z,79.60
2018-12-02T19:26:28.243Z,79.80
2018-12-02T19:29:03.701Z,79.80
2018-12-02T19:31:34.242Z,80.00
2018-12-02T19:34:02.797Z,80.00
2018-12-02T19:36:42.112Z,80.00
2018-12-02T19:39:16.270Z,80.20
2018-12-02T19:41:46.232Z,80.20
2018-12-02T19:47:07.534Z,80.20
2018-12-02T19:49:36.183Z,80.40
2018-12-02T19:52:04.698Z,80.50
2018-12-02T19:54:33.134Z,80.50
2018-12-02T19:57:01.642Z,80.50
2018-12-02T19:59:30.074Z,80.50
2018-12-02T20:02:04.366Z,80.60
2018-12-02T20:04:32.798Z,80.70
2018-12-02T20:07:01.241Z,80.80
2018-12-02T20:09:39.605Z,80.80
2018-12-02T20:12:08.114Z,80.80
2018-12-02T20:14:45.588Z,80.90
2018-12-02T20:17:16.330Z,80.90
2018-12-02T20:19:51.638Z,80.90
2018-12-02T20:22:20.075Z,80.90
2018-12-02T20:24:52.234Z,80.80
2018-12-02T20:27:20.724Z,80.90
2018-12-02T20:29:52.265Z,80.90
2018-12-02T20:32:20.730Z,80.90
2018-12-02T20:34:52.356Z,80.80
2018-12-02T20:37:22.213Z,80.90
2018-12-02T20:39:50.632Z,80.90
2018-12-02T20:42:19.185Z,80.90
2018-12-02T20:44:52.838Z,81.00
2018-12-02T20:47:22.279Z,80.90
2018-12-02T20:50:08.955Z,81.00
2018-12-02T20:52:40.341Z,81.00
2018-12-02T20:55:11.155Z,81.10
2018-12-02T20:57:40.397Z,81.10
2018-12-02T21:00:14.472Z,81.10
2018-12-02T21:02:50.029Z,81.10
2018-12-02T21:05:31.204Z,81.10
2018-12-02T21:10:58.303Z,81.20
2018-12-02T21:13:28.423Z,81.10
2018-12-02T21:16:03.589Z,81.30
2018-12-02T21:18:39.593Z,81.30
2018-12-02T21:21:08.179Z,81.30
2018-12-02T21:23:40.350Z,81.20
2018-12-02T21:26:15.764Z,81.30
2018-12-02T21:28:51.616Z,81.30
2018-12-02T21:31:20.122Z,81.30
2018-12-02T21:34:08.060Z,81.30
2018-12-02T21:39:29.183Z,81.30
2018-12-02T21:42:14.957Z,81.40
2018-12-02T21:44:51.724Z,81.40
2018-12-02T21:47:38.965Z,81.40
2018-12-02T21:53:20.072Z,81.40
2018-12-02T21:55:48.484Z,81.50
2018-12-02T21:58:17.039Z,81.50
2018-12-02T22:00:49.734Z,81.40
2018-12-02T22:03:18.297Z,81.50
2018-12-02T22:11:33.495Z,81.50
2018-12-02T22:14:02.011Z,81.50
2018-12-02T22:16:39.632Z,81.40
2018-12-02T22:19:08.156Z,81.40
2018-12-02T22:27:21.730Z,81.30
2018-12-02T22:29:50.169Z,81.30
2018-12-02T22:32:38.240Z,81.30
2018-12-02T22:35:26.103Z,81.30
2018-12-02T22:40:47.429Z,81.50
2018-12-02T22:43:33.076Z,81.30
2018-12-02T22:48:55.045Z,81.40
2018-12-02T22:51:23.522Z,81.50
2018-12-02T22:59:38.555Z,81.50
2018-12-02T23:02:17.483Z,81.60
2018-12-02T23:04:46.014Z,81.60
2018-12-02T23:13:00.953Z,81.50
2018-12-02T23:15:29.433Z,81.60
2018-12-02T23:18:11.318Z,81.60
2018-12-02T23:20:39.910Z,81.60
2018-12-02T23:29:09.223Z,81.70
2018-12-02T23:31:37.741Z,81.80
2018-12-02T23:39:51.236Z,81.80
2018-12-02T23:42:19.788Z,81.70
2018-12-02T23:47:57.058Z,81.90
2018-12-02T23:50:25.486Z,81.80
